首页
METAR-TAF:

METAR-TAF

机场 :

Adrian, 密歇根州, 美国

纬度: 41-52-04N, 经度: 084-04-46W, 海拔: 244米

当前天气观测

该预报发布于47分钟前的18:53 UTC
风速9节,风向西北,有时为15节阵风
温度 -2°C
湿度 46%
气压 1033 hPa
能見度: 16.1公里
天空无云

METAR: KADG 191853Z AUTO 32009G15KT 10SM CLR M02/M12 A3051 RMK AO2 SLP346 T10171117

时间: 14:40 (19:40 UTC)


TAF: 丢失

超过4000个机场的气象观测和天气预报(METAR&TAF报告)。

可查询的气象台以黄色和红色小点在地图上表示。

将鼠标移到小点上方,可查看气象台名称。

然后点击查看天气观测和预报。

如需切换地图:点击带黑十字的绿色按钮放大地图;点击带横线的绿色按钮缩小地图;或者点击绿色箭头查看邻近地区的地图。


METAR-TAF: